Virtuous Striker — C6XX6 — position and weather

sailwx.info

Track history (hours):
 
Tides and Currents Weather Stations Pressure Air Temp Water Temp Dewpoint Dewpoint Depression Visibility Wind Speed Wind Dir Waves Ship Positions

Virtuous Striker

Last reported at 2016-May-22 08:05 UTC. Time now 2016-May-29 13:29 UTC.
Position N 11°10' W 017°31'.

Length 190 m; draft 8.4 m.

Type: Cargo ship. MMSI: 311025100.

Date/timePositionNaut miles runAvg speedWind from/ knotsBaromVisibWave heightAir tempDewpointWater temp
2016-May-22 08:05N 11°10' W 017°31'2213.8
2016-May-22 06:29N 11°31' W 017°37'1313.7
2016-May-22 05:33N 11°43' W 017°40'1413.8
2016-May-22 04:33N 11°56' W 017°44'6213.8
2016-May-22 00:05N 12°56' W 018°01'813.8
2016-May-21 23:29N 13°04' W 018°03'2713.9
2016-May-21 21:34N 13°30' W 018°10'1413.8
2016-May-21 20:33N 13°43' W 018°14'1814.0
2016-May-21 19:16N 14°01' W 018°19'1013.9
2016-May-21 18:33N 14°10' W 018°22'  
2016-May-18 22:23N 28°19' W 013°28'60913.0
2016-May-16 23:33N 35°58' W 005°35'1212.0
2016-May-16 22:33N 36°05' W 005°23'2 2.1
2016-May-16 21:33N 36°07' W 005°22'0 0.2
2016-May-16 20:30N 36°07' W 005°22'0 0.1
2016-May-16 19:15N 36°07' W 005°22'0 0.1
2016-May-16 18:33N 36°07' W 005°22'0 0.0
2016-May-16 13:30N 36°07' W 005°22'3 2.9
2016-May-16 12:33N 36°05' W 005°19'4 3.9
2016-May-16 11:33N 36°08' W 005°15'2 1.9
2016-May-16 10:33N 36°07' W 005°12'1 0.7
2016-May-16 09:33N 36°08' W 005°13'1 0.4
2016-May-16 08:22N 36°08' W 005°13'4 4.8
2016-May-16 07:33N 36°05' W 005°10'  
Track history (hours):
 
Tides and Currents Weather Stations Pressure Air Temp Water Temp Dewpoint Dewpoint Depression Visibility Wind Speed Wind Dir Waves Ship Positions

Virtuous Striker

Last reported at 2016-May-22 08:05 UTC. Time now 2016-May-29 13:29 UTC.
Position N 11°10' W 017°31'.

Length 190 m; draft 8.4 m.

Type: Cargo ship. MMSI: 311025100.

Date/timePositionNaut miles runAvg speedWind from/ knotsBaromVisibWave heightAir tempDewpointWater temp
2016-May-22 08:05N 11°10' W 017°31'2213.8
2016-May-22 06:29N 11°31' W 017°37'1313.7
2016-May-22 05:33N 11°43' W 017°40'1413.8
2016-May-22 04:33N 11°56' W 017°44'6213.8
2016-May-22 00:05N 12°56' W 018°01'813.8
2016-May-21 23:29N 13°04' W 018°03'2713.9
2016-May-21 21:34N 13°30' W 018°10'1413.8
2016-May-21 20:33N 13°43' W 018°14'1814.0
2016-May-21 19:16N 14°01' W 018°19'1013.9
2016-May-21 18:33N 14°10' W 018°22'  
2016-May-18 22:23N 28°19' W 013°28'60913.0
2016-May-16 23:33N 35°58' W 005°35'1212.0
2016-May-16 22:33N 36°05' W 005°23'2 2.1
2016-May-16 21:33N 36°07' W 005°22'0 0.2
2016-May-16 20:30N 36°07' W 005°22'0 0.1
2016-May-16 19:15N 36°07' W 005°22'0 0.1
2016-May-16 18:33N 36°07' W 005°22'0 0.0
2016-May-16 13:30N 36°07' W 005°22'3 2.9
2016-May-16 12:33N 36°05' W 005°19'4 3.9
2016-May-16 11:33N 36°08' W 005°15'2 1.9
2016-May-16 10:33N 36°07' W 005°12'1 0.7
2016-May-16 09:33N 36°08' W 005°13'1 0.4
2016-May-16 08:22N 36°08' W 005°13'4 4.8
2016-May-16 07:33N 36°05' W 005°10'  

Dump ship's entire track history